Time;durP1;ratioP1;P1;durP2;ratioP2;P2;SDS_P1;SDS_P2;PMS_P1;PMS_P2;Temp;Humidity;BMP_temperature;BMP_pressure;BME280_temperature;BME280_humidity;BME280_pressure;Samples;Min_cycle;Max_cycle;Signal;HPM_P1;HPM_P2
2023/07/27 00:01:21;;;;;;;23.17;14.10;;;;;;;21.37;48.62;93347.97;4970720;28;20042;-88
2023/07/27 00:03:47;;;;;;;17.70;13.18;;;;;;;21.37;48.82;93342.47;4988361;28;20054;-88
2023/07/27 00:06:12;;;;;;;21.10;14.02;;;;;;;21.37;48.75;93336.97;4971439;28;20039;-88
2023/07/27 00:08:38;;;;;;;19.15;13.50;;;;;;;21.38;48.62;93340.47;4973777;28;20042;-88
2023/07/27 00:11:03;;;;;;;17.98;12.07;;;;;;;21.39;48.55;93341.94;4987420;28;20042;-88
2023/07/27 00:13:29;;;;;;;17.10;12.82;;;;;;;21.36;48.77;93327.25;4963607;28;20049;-88
2023/07/27 00:15:55;;;;;;;17.38;13.15;;;;;;;21.37;48.45;93325.97;4971884;28;20470;-88
2023/07/27 00:18:20;;;;;;;19.20;13.55;;;;;;;21.36;48.53;93327.25;4970779;28;20035;-88
2023/07/27 00:20:46;;;;;;;19.23;13.82;;;;;;;21.35;48.64;93325.03;4982591;28;20101;-88
2023/07/27 00:23:11;;;;;;;19.23;13.48;;;;;;;21.37;48.49;93325.25;4970919;28;20092;-88
2023/07/27 00:25:37;;;;;;;16.70;12.70;;;;;;;21.40;48.53;93319.41;4964892;28;20045;-89
2023/07/27 00:28:02;;;;;;;16.35;12.60;;;;;;;21.38;48.53;93332.22;4987893;28;20513;-88
2023/07/27 00:30:27;;;;;;;16.48;12.40;;;;;;;21.42;48.37;93332.63;4987473;28;20030;-88
2023/07/27 00:32:53;;;;;;;18.42;13.20;;;;;;;21.40;48.50;93333.16;4971515;28;20038;-87
2023/07/27 00:35:18;;;;;;;17.70;11.27;;;;;;;21.42;48.06;93338.13;4954682;28;20045;-88
2023/07/27 00:37:44;;;;;;;15.90;12.48;;;;;;;21.41;48.42;93340.16;4984983;28;20035;-88
2023/07/27 00:40:09;;;;;;;18.10;12.25;;;;;;;21.38;48.47;93334.97;4971501;28;20041;-88
2023/07/27 00:42:36;;;;;;;17.17;11.80;;;;;;;21.39;48.13;93334.44;4968229;28;20426;-88
2023/07/27 00:45:01;;;;;;;14.57;11.00;;;;;;;21.40;48.41;93333.16;4966146;28;20510;-88
2023/07/27 00:47:27;;;;;;;17.67;12.68;;;;;;;21.40;48.38;93332.44;4978623;28;20045;-88
2023/07/27 00:49:52;;;;;;;16.20;11.73;;;;;;;21.42;48.29;93329.91;4987544;28;20034;-88
2023/07/27 00:52:18;;;;;;;15.30;11.85;;;;;;;21.41;48.19;93325.66;4986896;28;20046;-88
2023/07/27 00:54:43;;;;;;;14.63;12.13;;;;;;;21.40;48.33;93327.66;4965398;28;20096;-88
2023/07/27 00:57:08;;;;;;;17.08;12.43;;;;;;;21.42;48.55;93324.41;4970202;28;20046;-88
2023/07/27 00:59:34;;;;;;;15.98;11.77;;;;;;;21.40;48.66;93327.66;4980624;28;20042;-88
2023/07/27 01:01:59;;;;;;;15.85;11.02;;;;;;;21.39;48.33;93315.19;4969870;28;20057;-88
2023/07/27 01:04:25;;;;;;;18.10;12.48;;;;;;;21.35;48.40;93309.28;4970720;28;20761;-88
2023/07/27 01:06:50;;;;;;;16.65;11.73;;;;;;;21.37;48.46;93311.50;4986715;28;20565;-88
2023/07/27 01:09:16;;;;;;;15.77;11.20;;;;;;;21.37;48.32;93306.72;4985466;28;20065;-88
2023/07/27 01:11:51;;;;;;;15.50;10.82;;;;;;;21.38;48.68;93308.22;4967285;28;20725;-88
2023/07/27 01:14:26;;;;;;;15.48;10.68;;;;;;;21.39;48.33;93303.44;4983891;28;20070;-88
2023/07/27 01:17:05;;;;;;;16.90;12.15;;;;;;;21.37;48.62;93303.25;4986701;28;20061;-88
2023/07/27 01:19:55;;;;;;;15.73;11.00;;;;;;;21.34;48.63;93296.78;4970173;28;20046;-87
2023/07/27 01:22:32;;;;;;;14.20;11.07;;;;;;;21.34;48.68;93293.31;4976282;28;20165;-88
2023/07/27 01:25:40;;;;;;;16.83;11.93;;;;;;;21.35;48.90;93297.53;4983827;28;20043;-88
2023/07/27 01:28:33;;;;;;;15.90;10.52;;;;;;;21.38;48.53;93288.22;4969655;28;20453;-88
2023/07/27 01:31:06;;;;;;;12.23;9.45;;;;;;;21.38;48.52;93301.97;4992825;28;20049;-88
2023/07/27 01:33:33;;;;;;;15.25;10.77;;;;;;;21.36;48.65;93293.50;4954364;28;20502;-88
2023/07/27 01:36:06;;;;;;;14.68;10.57;;;;;;;21.38;48.47;93285.47;4966196;28;20046;-88
2023/07/27 01:38:32;;;;;;;15.23;10.55;;;;;;;21.36;48.79;93291.50;4969805;28;20087;-88
2023/07/27 01:40:58;;;;;;;15.98;11.68;;;;;;;21.37;48.62;93287.50;4978952;28;20082;-88
2023/07/27 01:43:24;;;;;;;16.85;11.02;;;;;;;21.37;48.31;93301.22;4953219;28;20042;-88
2023/07/27 01:45:50;;;;;;;15.15;10.55;;;;;;;21.38;48.58;93288.97;4985412;28;20038;-88
2023/07/27 01:48:15;;;;;;;14.82;10.50;;;;;;;21.39;48.37;93290.44;4968373;28;20039;-87
2023/07/27 01:50:41;;;;;;;13.35;9.00;;;;;;;21.38;48.14;93299.97;4986027;28;20405;-88
2023/07/27 01:53:06;;;;;;;11.77;9.90;;;;;;;21.36;48.40;93294.25;4982686;28;20042;-88
2023/07/27 01:55:32;;;;;;;13.73;9.70;;;;;;;21.39;48.31;93292.44;4969924;28;20038;-88
2023/07/27 01:57:59;;;;;;;15.80;10.93;;;;;;;21.36;48.41;93293.50;4953810;28;20526;-88
2023/07/27 02:00:26;;;;;;;13.27;9.80;;;;;;;21.34;48.40;93290.56;4966051;28;20050;-88
2023/07/27 02:02:51;;;;;;;12.35;8.88;;;;;;;21.33;48.30;93289.81;4976301;28;20065;-88
2023/07/27 02:05:17;;;;;;;13.45;9.50;;;;;;;21.36;48.44;93299.75;5001568;28;20042;-88
2023/07/27 02:07:42;;;;;;;12.68;9.25;;;;;;;21.36;48.52;93299.75;4979522;28;20735;-88
2023/07/27 02:10:10;;;;;;;14.15;9.82;;;;;;;21.39;48.31;93300.69;4985852;28;20430;-87
2023/07/27 02:12:40;;;;;;;11.65;8.98;;;;;;;21.35;48.31;93301.03;4979337;28;20038;-88
2023/07/27 02:15:07;;;;;;;;;;;;;;;21.38;48.46;93299.97;4960405;28;20039;-88
2023/07/27 02:17:37;;;;;;;12.70;9.02;;;;;;;21.35;48.44;93292.03;5002002;28;19926;-88
2023/07/27 02:20:03;;;;;;;11.90;8.88;;;;;;;21.34;48.15;93291.28;4984543;28;20064;-88
2023/07/27 02:22:28;;;;;;;12.50;9.32;;;;;;;21.32;48.76;93293.09;4967141;28;20187;-88
2023/07/27 02:24:54;;;;;;;15.52;9.63;;;;;;;21.33;48.60;93292.56;4981445;28;20050;-88
2023/07/27 02:27:19;;;;;;;12.82;9.55;;;;;;;21.31;48.57;93286.13;4985171;28;20571;-88
2023/07/27 02:29:45;;;;;;;12.88;9.38;;;;;;;21.36;48.25;93280.50;4985773;28;20042;-88
2023/07/27 02:32:11;;;;;;;13.35;9.15;;;;;;;21.33;48.47;93292.56;4960876;28;20051;-87
2023/07/27 02:34:37;;;;;;;11.65;8.75;;;;;;;21.32;48.34;93282.09;4985940;28;20041;-88
2023/07/27 02:37:02;;;;;;;12.50;9.27;;;;;;;21.30;48.67;93279.88;4965158;28;20051;-88
2023/07/27 02:39:27;;;;;;;12.50;9.48;;;;;;;21.33;48.42;93287.06;4960641;28;20069;-88
2023/07/27 02:41:53;;;;;;;14.07;8.80;;;;;;;21.31;48.60;93277.88;4985348;28;20502;-88
2023/07/27 02:44:18;;;;;;;14.23;9.77;;;;;;;21.29;48.90;93286.66;4967470;28;20426;-88
2023/07/27 02:46:50;;;;;;;10.90;8.77;;;;;;;21.31;48.55;93284.09;4961261;28;20410;-88
2023/07/27 02:49:15;;;;;;;10.77;8.45;;;;;;;21.34;48.38;93290.56;5001251;28;20034;-88
2023/07/27 02:51:41;;;;;;;10.25;7.95;;;;;;;21.31;48.41;93292.34;4959168;28;20561;-88
2023/07/27 02:54:06;;;;;;;12.95;9.02;;;;;;;21.31;48.63;93295.09;4957170;28;20417;-88
2023/07/27 02:56:32;;;;;;;11.82;8.82;;;;;;;21.29;48.99;93294.91;4965994;28;20043;-87
2023/07/27 02:58:57;;;;;;;11.57;7.72;;;;;;;21.31;48.68;93297.13;4981967;28;20051;-88
2023/07/27 03:01:23;;;;;;;11.27;9.48;;;;;;;21.30;48.72;93298.38;4970832;28;20049;-87
2023/07/27 03:03:49;;;;;;;12.35;9.27;;;;;;;21.35;48.44;93300.28;4969155;28;20038;-88
2023/07/27 03:06:15;;;;;;;11.40;7.93;;;;;;;21.32;48.39;93291.09;4971030;28;20042;-88
2023/07/27 03:08:40;;;;;;;10.85;8.00;;;;;;;21.32;48.47;93293.84;4969960;28;20049;-88
2023/07/27 03:11:06;;;;;;;11.70;8.63;;;;;;;21.31;48.29;93297.13;5002216;28;20529;-88
2023/07/27 03:13:31;;;;;;;11.15;8.45;;;;;;;21.30;48.41;93304.63;4972994;28;20053;-87
2023/07/27 03:16:03;;;;;;;12.23;8.23;;;;;;;21.29;48.71;93305.91;4967856;28;20046;-88
2023/07/27 03:18:29;;;;;;;11.32;8.57;;;;;;;21.31;48.50;93305.38;4972928;28;20057;-88
2023/07/27 03:20:54;;;;;;;11.98;8.38;;;;;;;21.29;48.50;93305.91;4984256;28;20062;-87
2023/07/27 03:23:20;;;;;;;10.85;8.45;;;;;;;21.29;48.66;93305.91;4988380;28;20567;-87
2023/07/27 03:25:45;;;;;;;12.80;8.18;;;;;;;21.30;48.53;93298.38;4972950;28;20521;-88
2023/07/27 03:28:11;;;;;;;11.60;7.82;;;;;;;21.39;48.95;93301.44;4970003;28;20482;-87
2023/07/27 03:30:37;;;;;;;9.93;7.55;;;;;;;21.39;47.89;93295.94;4973170;28;20039;-87
2023/07/27 03:33:06;;;;;;;9.30;6.70;;;;;;;21.24;47.30;93306.00;4959740;28;20408;-88
2023/07/27 03:35:33;;;;;;;9.23;6.38;;;;;;;20.81;47.71;93305.09;4976141;28;20038;-89
2023/07/27 03:37:59;;;;;;;10.73;8.30;;;;;;;20.74;47.60;93305.00;4969452;28;20485;-88
2023/07/27 03:40:25;;;;;;;10.80;8.10;;;;;;;20.44;47.95;93314.28;4972534;28;20050;-87
2023/07/27 03:42:50;;;;;;;9.20;8.18;;;;;;;20.49;47.86;93316.19;4968441;28;20088;-87
2023/07/27 03:45:16;;;;;;;13.40;11.23;;;;;;;20.34;47.54;93320.69;4996743;28;20188;-87
2023/07/27 03:47:42;;;;;;;25.45;17.92;;;;;;;20.22;47.50;93313.88;4958776;28;20049;-90
2023/07/27 03:50:08;;;;;;;20.88;14.40;;;;;;;20.14;47.61;93309.00;4981616;28;20437;-90
2023/07/27 03:52:33;;;;;;;25.63;16.27;;;;;;;20.08;47.41;93307.63;4975036;28;20069;-89
2023/07/27 03:54:59;;;;;;;64.72;24.45;;;;;;;20.01;47.26;93308.25;4988641;28;20088;-90
2023/07/27 03:57:24;;;;;;;29.75;16.88;;;;;;;19.90;47.40;93311.19;4971671;28;20469;-89
2023/07/27 03:59:54;;;;;;;54.85;28.08;;;;;;;19.73;47.74;93311.41;4986297;28;20038;-89
2023/07/27 04:02:20;;;;;;;67.55;33.58;;;;;;;19.76;47.53;93310.38;4971669;28;20060;-90
2023/07/27 04:04:46;;;;;;;71.38;30.95;;;;;;;19.75;47.72;93306.16;4970604;28;20035;-89
2023/07/27 04:07:11;;;;;;;46.25;22.40;;;;;;;19.73;47.76;93306.69;4986179;28;20084;-89
2023/07/27 04:09:37;;;;;;;54.65;21.15;;;;;;;19.62;47.61;93300.63;4968591;28;20050;-90
2023/07/27 04:12:02;;;;;;;44.08;19.15;;;;;;;19.57;47.78;93313.16;4955301;28;20046;-91
2023/07/27 04:14:28;;;;;;;28.50;12.20;;;;;;;19.41;47.95;93311.38;4971849;28;20481;-86
2023/07/27 04:16:53;;;;;;;35.38;14.70;;;;;;;19.37;48.22;93313.66;4985451;28;20042;-90
2023/07/27 04:19:21;;;;;;;27.65;13.00;;;;;;;19.31;48.25;93305.50;4987401;28;20425;-90
2023/07/27 04:21:46;;;;;;;30.67;11.80;;;;;;;19.35;48.33;93311.44;4988119;28;20038;-88
2023/07/27 04:24:12;;;;;;;28.92;13.80;;;;;;;19.27;48.61;93304.34;4983495;28;20050;-91
2023/07/27 04:26:37;;;;;;;21.63;12.05;;;;;;;19.20;48.77;93321.38;4985995;28;20108;-88
2023/07/27 04:29:03;;;;;;;23.77;10.38;;;;;;;19.24;48.60;93308.88;4972542;28;20043;-87
2023/07/27 04:31:29;;;;;;;17.15;10.15;;;;;;;19.10;48.97;93327.22;4988541;28;20077;-88
2023/07/27 04:33:54;;;;;;;18.27;10.70;;;;;;;19.08;48.70;93324.25;5000491;28;20061;-90
2023/07/27 04:36:20;;;;;;;18.65;8.93;;;;;;;18.95;49.08;93315.19;4996127;28;20506;-90
2023/07/27 04:38:46;;;;;;;20.73;9.50;;;;;;;19.00;49.15;93317.88;4970651;28;20038;-91
2023/07/27 04:41:12;;;;;;;17.42;11.30;;;;;;;18.94;49.54;93322.69;4968582;28;20052;-90
2023/07/27 04:43:37;;;;;;;25.60;11.80;;;;;;;19.02;49.59;93317.38;4961674;28;20046;-88
2023/07/27 04:46:03;;;;;;;30.02;13.70;;;;;;;18.96;49.31;93319.44;4961472;28;20051;-88
2023/07/27 04:48:28;;;;;;;31.33;13.00;;;;;;;19.02;49.35;93320.84;4961199;28;20108;-89
2023/07/27 04:50:54;;;;;;;25.85;13.20;;;;;;;19.06;49.25;93313.06;4969292;28;20075;-88
2023/07/27 04:53:19;;;;;;;34.80;16.55;;;;;;;19.08;49.05;93318.75;5004060;28;20045;-90
2023/07/27 04:55:46;;;;;;;36.78;17.33;;;;;;;19.14;49.12;93308.47;4970821;28;20042;-89
2023/07/27 04:58:11;;;;;;;44.28;21.55;;;;;;;19.16;48.97;93314.19;4964583;28;20510;-87
2023/07/27 05:00:37;;;;;;;57.20;25.15;;;;;;;19.26;48.93;93322.78;4957503;28;20153;-88
2023/07/27 05:03:02;;;;;;;47.65;24.10;;;;;;;19.31;48.71;93308.25;4967717;28;20043;-88
2023/07/27 05:05:28;;;;;;;44.00;23.55;;;;;;;19.38;48.90;93318.63;4976979;28;20042;-87
2023/07/27 05:07:53;;;;;;;43.55;21.00;;;;;;;19.34;48.83;93320.19;4968731;28;20049;-89
2023/07/27 05:10:19;;;;;;;33.97;18.20;;;;;;;19.16;49.51;93322.41;4966873;28;20222;-90
2023/07/27 05:12:45;;;;;;;41.45;22.13;;;;;;;19.09;49.95;93319.50;4968046;28;20050;-90
2023/07/27 05:15:11;;;;;;;37.10;18.38;;;;;;;19.00;49.94;93323.38;4953716;28;20092;-89
2023/07/27 05:17:37;;;;;;;31.30;16.30;;;;;;;18.81;50.75;93322.59;4982789;28;20050;-90
2023/07/27 05:20:02;;;;;;;32.70;17.30;;;;;;;18.77;50.65;93314.66;4959445;28;20178;-90
2023/07/27 05:22:28;;;;;;;35.25;16.30;;;;;;;18.64;50.93;93325.50;4995459;28;20125;-88
2023/07/27 05:24:53;;;;;;;66.75;30.98;;;;;;;18.57;51.18;93320.59;4987524;28;20026;-92
2023/07/27 05:27:20;;;;;;;76.78;35.97;;;;;;;18.56;51.06;93321.84;4983758;28;20407;-91
2023/07/27 05:29:45;;;;;;;86.10;47.05;;;;;;;18.56;51.21;93321.09;4966568;28;20042;-89
2023/07/27 05:32:11;;;;;;;89.55;45.47;;;;;;;18.82;50.70;93318.59;5021726;28;20173;-89
2023/07/27 05:34:36;;;;;;;76.30;35.65;;;;;;;18.86;50.54;93315.53;4968130;28;20453;-89
2023/07/27 05:37:02;;;;;;;80.70;32.08;;;;;;;18.90;50.60;93318.75;4969351;28;20042;-89
2023/07/27 05:39:30;;;;;;;61.47;27.90;;;;;;;18.91;50.74;93322.97;4991782;28;20042;-89
2023/07/27 05:41:56;;;;;;;40.03;18.80;;;;;;;18.66;51.34;93330.47;4985636;28;20049;-90
2023/07/27 05:44:21;;;;;;;40.90;17.60;;;;;;;18.83;50.63;93326.31;4976028;28;20054;-90
2023/07/27 05:46:51;;;;;;;66.15;25.60;;;;;;;18.93;50.69;93328.66;4978637;28;20053;-89
2023/07/27 05:49:16;;;;;;;59.13;26.08;;;;;;;18.87;50.80;93323.25;4950824;28;20035;-91
2023/07/27 05:51:42;;;;;;;66.53;29.85;;;;;;;18.95;50.53;93337.84;4963896;28;20092;-91
2023/07/27 05:54:07;;;;;;;62.60;27.30;;;;;;;18.95;50.68;93328.91;4972072;28;20038;-88
2023/07/27 05:56:33;;;;;;;63.75;26.88;;;;;;;18.84;51.01;93324.28;4991286;28;20046;-90
2023/07/27 05:58:58;;;;;;;83.32;38.17;;;;;;;18.80;51.02;93323.84;4999389;28;20057;-93
2023/07/27 06:01:24;;;;;;;103.45;47.20;;;;;;;18.78;51.12;93337.31;4980572;28;20167;-89
2023/07/27 06:03:49;;;;;;;135.57;68.07;;;;;;;18.76;51.31;93328.88;4965434;28;20047;-89
2023/07/27 06:06:16;;;;;;;102.13;50.42;;;;;;;18.86;50.98;93334.72;5001478;28;20042;-89
2023/07/27 06:08:41;;;;;;;129.43;62.20;;;;;;;18.82;51.23;93341.25;4970610;28;20073;-90
2023/07/27 06:11:09;;;;;;;96.38;50.15;;;;;;;18.79;51.56;93334.06;4965222;28;21266;-90
2023/07/27 06:13:36;;;;;;;142.00;49.35;;;;;;;18.89;51.33;93339.91;4982395;28;20046;-91
2023/07/27 06:16:01;;;;;;;75.60;36.25;;;;;;;19.01;51.48;93337.81;4969820;28;20142;-91
2023/07/27 06:18:27;;;;;;;56.85;30.55;;;;;;;18.94;51.61;93344.59;4969897;28;20486;-91
2023/07/27 06:20:52;;;;;;;44.00;26.23;;;;;;;18.95;51.16;93339.84;5002259;28;20857;-90
2023/07/27 06:23:18;;;;;;;43.97;25.20;;;;;;;18.91;51.52;93340.13;4966852;28;20047;-92
2023/07/27 06:25:44;;;;;;;31.30;19.65;;;;;;;18.86;51.66;93332.72;4978202;28;20039;-87
2023/07/27 06:28:09;;;;;;;29.73;15.77;;;;;;;18.89;51.63;93342.66;4970372;28;20035;-88
2023/07/27 06:30:36;;;;;;;55.85;30.30;;;;;;;18.87;51.81;93338.94;4970552;28;20035;-89
2023/07/27 06:33:01;;;;;;;97.07;49.10;;;;;;;18.91;51.97;93342.88;4960806;28;20656;-89
2023/07/27 06:35:27;;;;;;;166.35;67.80;;;;;;;18.96;51.70;93336.59;4982423;28;20093;-89
2023/07/27 06:37:53;;;;;;;219.65;98.60;;;;;;;19.07;51.46;93336.47;4960328;28;20038;-90
2023/07/27 06:40:19;;;;;;;219.88;103.80;;;;;;;18.96;51.86;93331.13;5005139;28;20049;-92
2023/07/27 06:42:44;;;;;;;279.15;138.50;;;;;;;18.96;51.79;93327.66;4993673;28;20066;-88
2023/07/27 06:45:10;;;;;;;226.30;105.10;;;;;;;18.81;51.99;93334.28;4987055;28;20102;-88
2023/07/27 06:47:36;;;;;;;161.98;80.32;;;;;;;18.91;52.36;93333.91;4957435;28;20046;-90
2023/07/27 06:50:02;;;;;;;185.52;67.97;;;;;;;18.77;52.63;93324.88;5020910;28;20198;-90
2023/07/27 06:52:28;;;;;;;167.95;64.50;;;;;;;18.85;52.50;93325.75;4985359;28;20042;-88
2023/07/27 06:54:54;;;;;;;143.00;57.75;;;;;;;18.87;52.75;93325.25;4984490;28;20038;-89
2023/07/27 06:57:21;;;;;;;160.63;51.70;;;;;;;18.92;52.36;93327.94;4970963;28;20102;-90
2023/07/27 06:59:46;;;;;;;95.60;42.00;;;;;;;19.04;52.25;93331.28;4974313;28;20030;-90
2023/07/27 07:02:12;;;;;;;81.75;33.55;;;;;;;18.99;52.10;93332.84;5018235;28;20047;-87
2023/07/27 07:04:37;;;;;;;64.78;29.30;;;;;;;19.00;52.55;93323.38;4982607;28;20035;-89
2023/07/27 07:07:03;;;;;;;80.20;34.60;;;;;;;19.08;52.22;93328.97;4976478;28;20043;-90
2023/07/27 07:09:28;;;;;;;74.38;32.83;;;;;;;19.06;51.99;93321.28;4976749;28;20041;-91
2023/07/27 07:11:55;;;;;;;76.90;29.88;;;;;;;19.03;51.81;93327.81;5013851;28;20049;-91
2023/07/27 07:14:22;;;;;;;57.33;26.27;;;;;;;19.00;51.82;93328.84;4957516;28;20042;-89
2023/07/27 07:16:47;;;;;;;61.28;25.63;;;;;;;19.08;51.71;93321.50;4984757;28;20426;-88
2023/07/27 07:19:13;;;;;;;54.45;25.15;;;;;;;19.10;51.65;93315.50;4990241;28;20065;-90
2023/07/27 07:21:38;;;;;;;52.13;21.77;;;;;;;19.11;51.63;93320.47;4965567;28;20039;-88
2023/07/27 07:24:05;;;;;;;44.00;16.88;;;;;;;19.12;51.64;93326.69;5001774;28;20027;-88
2023/07/27 07:26:30;;;;;;;38.65;16.73;;;;;;;19.22;51.41;93322.34;4997733;28;20035;-86
2023/07/27 07:28:56;;;;;;;35.05;15.63;;;;;;;19.15;51.46;93320.19;4972395;28;20031;-86
2023/07/27 07:31:22;;;;;;;71.32;26.15;;;;;;;19.16;51.53;93316.19;5014936;28;20097;-88
2023/07/27 07:33:48;;;;;;;60.13;22.48;;;;;;;19.21;51.05;93320.13;4978082;28;20038;-86
2023/07/27 07:36:13;;;;;;;43.80;16.95;;;;;;;19.18;50.88;93333.59;4988160;28;20065;-90
2023/07/27 07:38:41;;;;;;;36.80;13.20;;;;;;;19.11;51.32;93322.47;4937613;28;20039;-87
2023/07/27 07:41:07;;;;;;;26.85;9.20;;;;;;;19.07;50.80;93320.00;4977198;28;20046;-86
2023/07/27 07:43:35;;;;;;;26.50;8.63;;;;;;;19.03;50.89;93321.59;4966705;28;20043;-86
2023/07/27 07:46:01;;;;;;;27.35;10.63;;;;;;;19.07;51.12;93317.28;4978016;28;20051;-85
2023/07/27 07:48:28;;;;;;;29.10;10.80;;;;;;;18.97;51.15;93313.44;4985646;28;20401;-88
2023/07/27 07:50:57;;;;;;;26.65;10.68;;;;;;;19.07;51.33;93322.00;4975194;28;20046;-87
2023/07/27 07:53:25;;;;;;;56.70;16.27;;;;;;;18.99;51.59;93313.66;4969831;28;21208;-86
2023/07/27 07:55:51;;;;;;;26.33;9.77;;;;;;;19.12;51.16;93318.47;4988408;28;20049;-87
2023/07/27 07:58:18;;;;;;;38.42;11.48;;;;;;;19.13;51.75;93304.25;4970221;28;20046;-87
2023/07/27 08:00:43;;;;;;;38.78;15.98;;;;;;;19.14;51.83;93318.69;4978843;28;20526;-85
2023/07/27 08:03:09;;;;;;;33.03;13.18;;;;;;;19.23;51.36;93307.38;5017851;28;20054;-87
2023/07/27 08:05:36;;;;;;;34.53;14.23;;;;;;;19.03;51.77;93314.13;4954754;28;20069;-87
2023/07/27 08:08:02;;;;;;;29.30;17.08;;;;;;;19.04;52.13;93312.84;4948053;28;20053;-89
2023/07/27 08:10:29;;;;;;;33.60;14.93;;;;;;;19.10;51.99;93312.75;4972016;28;20046;-87
2023/07/27 08:12:58;;;;;;;36.47;13.00;;;;;;;18.94;52.83;93310.97;4987448;28;20047;-86
2023/07/27 08:15:25;;;;;;;57.88;18.00;;;;;;;18.95;52.38;93302.25;4972323;28;20055;-88
2023/07/27 08:17:51;;;;;;;51.17;16.20;;;;;;;19.04;52.35;93304.63;4971032;28;20043;-86
2023/07/27 08:20:21;;;;;;;60.00;25.20;;;;;;;19.04;52.33;93299.16;4967936;28;20038;-88
2023/07/27 08:22:47;;;;;;;38.30;14.48;;;;;;;19.01;52.39;93304.94;4970890;28;20058;-88
2023/07/27 08:25:14;;;;;;;47.08;18.30;;;;;;;19.12;52.48;93302.03;4972351;28;20587;-89
2023/07/27 08:27:42;;;;;;;54.53;24.92;;;;;;;19.10;52.03;93297.06;4971369;28;20066;-89
2023/07/27 08:30:09;;;;;;;221.32;77.38;;;;;;;19.05;52.14;93306.09;4973530;28;20054;-89
2023/07/27 08:32:35;;;;;;;113.20;41.47;;;;;;;19.08;52.19;93291.34;4975591;28;20050;-89
2023/07/27 08:35:06;;;;;;;124.40;43.53;;;;;;;19.07;52.37;93289.13;4985004;28;20034;-88
2023/07/27 08:37:31;;;;;;;133.38;43.05;;;;;;;19.17;51.92;93288.25;4974227;28;20541;-89
2023/07/27 08:40:01;;;;;;;97.72;32.83;;;;;;;19.27;51.54;93280.41;4989571;28;20122;-87
2023/07/27 08:42:28;;;;;;;122.57;46.40;;;;;;;19.32;51.74;93279.59;4955501;28;20117;-89
2023/07/27 08:44:56;;;;;;;100.10;42.30;;;;;;;19.40;51.51;93291.44;5014810;28;20128;-87
2023/07/27 08:47:22;;;;;;;98.63;43.08;;;;;;;19.39;51.38;93284.47;4965514;28;20626;-86
2023/07/27 08:49:50;;;;;;;85.45;35.20;;;;;;;19.38;50.96;93287.72;4973128;28;20050;-87
2023/07/27 08:52:16;;;;;;;104.97;34.92;;;;;;;19.44;51.02;93291.16;4955540;28;20053;-87
2023/07/27 08:54:42;;;;;;;54.92;22.63;;;;;;;19.39;50.84;93289.97;4995493;28;20033;-87
2023/07/27 08:57:08;;;;;;;37.15;18.02;;;;;;;19.29;50.83;93286.09;4974254;28;20053;-87
2023/07/27 08:59:34;;;;;;;36.72;17.23;;;;;;;19.32;51.05;93284.31;4974244;28;20521;-87
2023/07/27 09:02:01;;;;;;;24.52;13.30;;;;;;;19.23;51.15;93274.50;4983611;28;20109;-86
2023/07/27 09:04:27;;;;;;;26.30;10.43;;;;;;;19.36;51.34;93280.03;5000857;28;20039;-89
2023/07/27 09:06:56;;;;;;;22.80;10.73;;;;;;;19.24;51.24;93281.47;4981558;28;20046;-87
2023/07/27 09:09:25;;;;;;;17.85;7.78;;;;;;;19.22;51.54;93270.28;4982709;28;20050;-87
2023/07/27 09:11:51;;;;;;;18.45;7.22;;;;;;;19.20;51.35;93270.03;4942984;28;20045;-86
2023/07/27 09:14:22;;;;;;;19.90;7.90;;;;;;;19.10;51.33;93263.44;4957635;28;20033;-86
2023/07/27 09:16:50;;;;;;;;;;;;;;;19.14;50.97;93270.13;4962821;28;20128;-87
2023/07/27 09:19:18;;;;;;;27.30;8.18;;;;;;;19.13;51.26;93265.91;5008779;28;20452;-87
2023/07/27 09:21:57;;;;;;;27.70;9.23;;;;;;;19.21;51.03;93262.56;4962742;28;20125;-86
2023/07/27 09:24:23;;;;;;;24.80;6.22;;;;;;;19.12;51.82;93260.94;4994689;28;20136;-87
2023/07/27 09:26:52;;;;;;;10.35;4.72;;;;;;;19.15;50.99;93265.38;4967993;28;20085;-86
2023/07/27 09:29:20;;;;;;;15.32;5.45;;;;;;;19.09;51.10;93253.75;4968324;28;20072;-87
2023/07/27 09:31:51;;;;;;;14.15;5.75;;;;;;;19.04;51.46;93258.06;4966295;28;20621;-88
2023/07/27 09:34:20;;;;;;;18.50;6.45;;;;;;;19.09;51.24;93253.75;4984964;28;20051;-88
2023/07/27 09:36:49;;;;;;;30.77;7.32;;;;;;;19.05;51.36;93253.31;4963727;28;20041;-87
2023/07/27 09:39:20;;;;;;;16.85;5.90;;;;;;;19.12;50.46;93253.44;4983573;28;20046;-89
2023/07/27 09:41:53;;;;;;;12.98;6.10;;;;;;;19.07;50.40;93251.53;5000892;28;20035;-89
2023/07/27 09:44:21;;;;;;;14.98;5.90;;;;;;;18.99;50.22;93250.66;4981726;28;20206;-90
2023/07/27 09:46:47;;;;;;;18.85;7.75;;;;;;;19.01;49.85;93239.91;4993344;28;20114;-89
2023/07/27 09:49:14;;;;;;;100.35;13.25;;;;;;;18.94;49.85;93243.25;4971870;28;20041;-89
2023/07/27 09:51:40;;;;;;;65.00;9.57;;;;;;;19.05;50.03;93229.38;4966459;28;20182;-89
2023/07/27 09:54:11;;;;;;;75.93;19.65;;;;;;;19.04;49.78;93233.41;4978580;28;22033;-89
2023/07/27 09:56:38;;;;;;;84.03;17.48;;;;;;;19.11;49.91;93230.06;4975292;28;20045;-89
2023/07/27 09:59:21;;;;;;;53.90;18.42;;;;;;;19.15;49.88;93233.22;5076773;27;20442;-90
2023/07/27 10:01:49;;;;;;;39.00;11.55;;;;;;;19.16;50.29;93237.47;5043856;28;20033;-89
2023/07/27 10:04:15;;;;;;;27.40;8.68;;;;;;;19.24;49.93;93234.13;5060957;28;20044;-89
2023/07/27 10:06:41;;;;;;;22.20;6.88;;;;;;;19.17;49.42;93225.25;5060050;28;20074;-90
2023/07/27 10:09:16;;;;;;;12.27;5.10;;;;;;;19.07;49.64;93239.81;5079259;28;20068;-89
2023/07/27 10:11:55;;;;;;;14.77;4.60;;;;;;;19.16;49.90;93234.72;5069572;28;20052;-89
2023/07/27 10:14:23;;;;;;;6.00;3.10;;;;;;;19.21;50.02;93237.91;5049816;28;20546;-88
2023/07/27 10:17:08;;;;;;;4.97;2.97;;;;;;;19.16;49.65;93225.75;5057697;28;20397;-88
2023/07/27 10:19:45;;;;;;;5.82;2.78;;;;;;;19.21;49.73;93216.72;5031807;28;20036;-88
2023/07/27 10:22:15;;;;;;;3.60;2.17;;;;;;;19.14;48.67;93222.78;5045783;28;20040;-89
2023/07/27 10:24:47;;;;;;;3.33;2.22;;;;;;;19.09;48.98;93220.88;5074556;28;20043;-88
2023/07/27 10:27:12;;;;;;;4.60;2.45;;;;;;;19.12;49.46;93225.31;5089611;28;20052;-88
2023/07/27 10:29:38;;;;;;;4.65;2.30;;;;;;;19.18;50.42;93217.75;5063008;28;20040;-88
2023/07/27 10:32:07;;;;;;;3.28;2.53;;;;;;;19.15;49.03;93211.31;5046059;28;20077;-87
2023/07/27 10:34:35;;;;;;;3.90;2.60;;;;;;;19.15;49.11;93214.06;5047158;28;20048;-88
2023/07/27 10:37:01;;;;;;;9.70;6.28;;;;;;;19.26;48.95;93215.16;5062685;28;20051;-88
2023/07/27 10:39:46;;;;;;;11.00;5.88;;;;;;;19.29;48.92;93217.56;5038551;28;20045;-88
2023/07/27 10:42:17;;;;;;;37.00;18.05;;;;;;;19.36;48.28;93202.53;5040934;28;20048;-89
2023/07/27 10:44:46;;;;;;;25.98;12.98;;;;;;;19.34;48.73;93205.06;5054592;28;20048;-88
2023/07/27 10:47:15;;;;;;;21.55;11.35;;;;;;;19.37;48.68;93198.53;5064109;28;20068;-88
2023/07/27 10:49:44;;;;;;;18.23;8.77;;;;;;;19.34;48.70;93196.84;5047100;28;20082;-88
2023/07/27 10:52:14;;;;;;;24.88;11.20;;;;;;;19.52;48.78;93196.81;5030441;28;20167;-87
2023/07/27 10:54:40;;;;;;;50.50;23.35;;;;;;;19.40;48.30;93195.50;5045934;28;20040;-88
2023/07/27 10:57:07;;;;;;;30.77;14.20;;;;;;;19.53;48.13;93189.31;5042000;28;20606;-88
2023/07/27 10:59:38;;;;;;;22.80;9.73;;;;;;;19.61;47.76;93186.72;5045205;28;20051;-87
2023/07/27 11:02:11;;;;;;;;;;;;;;;19.55;47.70;93186.06;5027086;28;20048;-87
2023/07/27 11:04:38;;;;;;;30.42;7.85;;;;;;;19.51;48.00;93183.63;5061125;28;20073;-88
2023/07/27 11:07:03;;;;;;;28.52;9.52;;;;;;;19.47;47.54;93177.72;5054126;28;20041;-87
2023/07/27 11:09:29;;;;;;;23.42;10.35;;;;;;;19.48;47.57;93174.44;5017530;28;20757;-89
2023/07/27 11:11:59;;;;;;;30.23;10.80;;;;;;;19.51;47.50;93167.19;5010845;28;20128;-88
2023/07/27 11:14:24;;;;;;;22.98;7.65;;;;;;;19.50;47.88;93166.44;5010395;28;20041;-88
2023/07/27 11:16:51;;;;;;;16.33;7.50;;;;;;;19.48;47.81;93160.72;5031705;28;20050;-89
2023/07/27 11:19:17;;;;;;;18.83;7.72;;;;;;;19.59;47.33;93161.81;5050707;28;20041;-88